Time;durP1;ratioP1;P1;durP2;ratioP2;P2;SDS_P1;SDS_P2;PMS_P1;PMS_P2;Temp;Humidity;BMP_temperature;BMP_pressure;BME280_temperature;BME280_humidity;BME280_pressure;Samples;Min_cycle;Max_cycle;Signal;HPM_P1;HPM_P2
2022/11/14 00:00:43;;;;;;;33.10;17.37;;;8.50;99.90;;;;;;5038506;28;20556;-54
2022/11/14 00:03:10;;;;;;;37.90;18.47;;;8.50;99.90;;;;;;5037619;28;20446;-60
2022/11/14 00:05:40;;;;;;;40.80;19.20;;;8.50;99.90;;;;;;5036678;28;20472;-61
2022/11/14 00:08:07;;;;;;;44.43;21.00;;;8.50;99.90;;;;;;5036164;28;20468;-58
2022/11/14 00:10:34;;;;;;;44.27;20.83;;;8.40;99.90;;;;;;5027918;28;20465;-66
2022/11/14 00:13:01;;;;;;;36.90;17.30;;;8.50;99.90;;;;;;5032578;28;20443;-59
2022/11/14 00:15:29;;;;;;;50.00;19.37;;;8.50;99.90;;;;;;5035425;28;20457;-58
2022/11/14 00:17:56;;;;;;;37.77;19.00;;;8.40;99.90;;;;;;5035308;28;20465;-59
2022/11/14 00:20:23;;;;;;;45.17;20.70;;;8.40;99.90;;;;;;5035526;28;20481;-51
2022/11/14 00:22:51;;;;;;;38.10;19.03;;;8.40;99.90;;;;;;5036955;28;20457;-56
2022/11/14 00:25:19;;;;;;;41.13;20.10;;;8.30;99.90;;;;;;5036693;28;20449;-61
2022/11/14 00:27:46;;;;;;;34.43;16.63;;;8.30;99.90;;;;;;5036834;28;20472;-61
2022/11/14 00:30:13;;;;;;;40.30;19.23;;;8.30;99.90;;;;;;5036577;28;20449;-60
2022/11/14 00:32:42;;;;;;;42.90;18.30;;;8.40;99.90;;;;;;5036117;28;20434;-61
2022/11/14 00:35:09;;;;;;;37.90;19.87;;;8.40;99.90;;;;;;5036761;28;20453;-63
2022/11/14 00:37:36;;;;;;;39.40;19.37;;;8.50;99.90;;;;;;5036712;28;20753;-55
2022/11/14 00:40:04;;;;;;;43.80;20.13;;;8.50;99.90;;;;;;5034988;28;20500;-58
2022/11/14 00:42:31;;;;;;;39.43;20.60;;;8.50;99.90;;;;;;5034486;28;20457;-59
2022/11/14 00:45:00;;;;;;;37.27;19.80;;;8.50;99.90;;;;;;5035359;28;20449;-54
2022/11/14 00:47:27;;;;;;;33.53;18.60;;;8.50;99.90;;;;;;5035284;28;20480;-54
2022/11/14 00:49:55;;;;;;;36.07;19.20;;;8.50;99.90;;;;;;5034655;28;20438;-53
2022/11/14 00:52:22;;;;;;;42.53;18.93;;;8.50;99.90;;;;;;5034388;28;20441;-56
2022/11/14 00:54:49;;;;;;;42.17;18.47;;;8.40;99.90;;;;;;5036214;28;20469;-56
2022/11/14 00:57:16;;;;;;;39.97;19.47;;;8.40;99.90;;;;;;5036432;28;20464;-60
2022/11/14 00:59:42;;;;;;;46.73;20.17;;;8.40;99.90;;;;;;5036580;28;20524;-60
2022/11/14 01:02:09;;;;;;;50.07;21.63;;;8.30;99.90;;;;;;5036078;28;20460;-58
2022/11/14 01:04:36;;;;;;;42.53;18.80;;;8.30;99.90;;;;;;5023287;28;20514;-56
2022/11/14 01:07:06;;;;;;;39.53;19.20;;;8.20;99.90;;;;;;5035032;28;20472;-56
2022/11/14 01:09:33;;;;;;;46.07;19.67;;;8.20;99.90;;;;;;5035947;28;20997;-65
2022/11/14 01:12:02;;;;;;;45.00;19.30;;;8.20;99.90;;;;;;5034334;28;20469;-59
2022/11/14 01:14:29;;;;;;;43.77;18.73;;;8.20;99.90;;;;;;5034822;28;20452;-57
2022/11/14 01:16:56;;;;;;;44.23;18.67;;;8.20;99.90;;;;;;5034860;28;20472;-58
2022/11/14 01:19:23;;;;;;;43.67;18.80;;;8.20;99.90;;;;;;5033742;28;20489;-61
2022/11/14 01:21:50;;;;;;;49.20;22.27;;;8.20;99.90;;;;;;5034453;28;20445;-63
2022/11/14 01:24:18;;;;;;;42.63;19.57;;;8.20;99.90;;;;;;5035477;28;20503;-58
2022/11/14 01:26:45;;;;;;;52.27;21.77;;;8.20;99.90;;;;;;5035537;28;20464;-60
2022/11/14 01:29:12;;;;;;;47.43;20.43;;;8.20;99.90;;;;;;5034605;28;20449;-60
2022/11/14 01:31:39;;;;;;;51.60;22.83;;;8.10;99.90;;;;;;5035225;28;20445;-59
2022/11/14 01:34:06;;;;;;;49.30;19.57;;;8.10;99.90;;;;;;5035128;28;20448;-64
2022/11/14 01:36:33;;;;;;;45.57;19.80;;;8.10;99.90;;;;;;5034851;28;20477;-54
2022/11/14 01:39:00;;;;;;;36.00;17.07;;;8.10;99.90;;;;;;5034571;28;20440;-53
2022/11/14 01:41:28;;;;;;;39.37;19.17;;;8.00;99.90;;;;;;5035316;28;20445;-62
2022/11/14 01:43:55;;;;;;;47.73;22.13;;;8.00;99.90;;;;;;5035058;28;20452;-63
2022/11/14 01:46:26;;;;;;;60.20;25.30;;;8.00;99.90;;;;;;5035467;28;20425;-61
2022/11/14 01:48:59;;;;;;;40.07;19.33;;;8.00;99.90;;;;;;5034901;28;20500;-54
2022/11/14 01:51:31;;;;;;;49.33;21.07;;;8.10;99.90;;;;;;5035101;28;20434;-61
2022/11/14 01:54:01;;;;;;;44.83;22.17;;;8.00;99.90;;;;;;5033598;28;20472;-59
2022/11/14 01:56:32;;;;;;;54.37;22.33;;;8.00;99.90;;;;;;5032093;28;20456;-52
2022/11/14 01:59:04;;;;;;;48.40;18.77;;;8.00;99.90;;;;;;5033089;28;20456;-54
2022/11/14 02:01:34;;;;;;;40.80;18.63;;;8.00;99.90;;;;;;5033567;28;20475;-60
2022/11/14 02:04:04;;;;;;;55.13;21.93;;;8.00;99.90;;;;;;5033614;28;20464;-57
2022/11/14 02:06:32;;;;;;;50.50;21.80;;;8.10;99.90;;;;;;5033365;28;20449;-57
2022/11/14 02:09:02;;;;;;;50.97;21.27;;;8.10;99.90;;;;;;5033755;28;20430;-60
2022/11/14 02:11:35;;;;;;;41.07;18.87;;;8.10;99.90;;;;;;5034561;28;20448;-56
2022/11/14 02:14:02;;;;;;;47.27;21.17;;;8.20;99.90;;;;;;5034553;28;20469;-50
2022/11/14 02:16:29;;;;;;;52.37;21.93;;;8.20;99.90;;;;;;5034116;28;20421;-58
2022/11/14 02:18:56;;;;;;;46.60;20.10;;;8.10;99.90;;;;;;5034513;28;20449;-57
2022/11/14 02:21:24;;;;;;;47.50;21.47;;;8.20;99.90;;;;;;5021971;28;20985;-57
2022/11/14 02:23:51;;;;;;;55.87;22.13;;;8.20;99.90;;;;;;5034694;28;20437;-66
2022/11/14 02:26:19;;;;;;;45.93;20.90;;;8.20;99.90;;;;;;5033559;28;20520;-58
2022/11/14 02:28:49;;;;;;;43.60;20.07;;;8.10;99.90;;;;;;5034187;28;20433;-59
2022/11/14 02:31:16;;;;;;;36.13;20.37;;;8.20;99.90;;;;;;5034068;28;20461;-62
2022/11/14 02:33:43;;;;;;;46.00;18.17;;;8.10;99.90;;;;;;5033765;28;20465;-61
2022/11/14 02:36:10;;;;;;;51.03;21.40;;;8.20;99.90;;;;;;5034089;28;20449;-61
2022/11/14 02:38:38;;;;;;;60.07;20.37;;;8.10;99.90;;;;;;5034120;28;20469;-60
2022/11/14 02:41:05;;;;;;;51.53;21.30;;;8.10;99.90;;;;;;5034142;28;20480;-57
2022/11/14 02:43:32;;;;;;;52.67;19.77;;;8.10;99.90;;;;;;5033935;28;20477;-60
2022/11/14 02:45:59;;;;;;;50.33;20.63;;;8.20;99.90;;;;;;5034418;28;20444;-60
2022/11/14 02:48:25;;;;;;;44.20;18.70;;;8.20;99.90;;;;;;5034088;28;20429;-60
2022/11/14 02:50:52;;;;;;;48.80;20.83;;;8.20;99.90;;;;;;5033230;28;20468;-62
2022/11/14 02:53:19;;;;;;;44.93;18.20;;;8.20;99.90;;;;;;5034176;28;20507;-61
2022/11/14 02:55:47;;;;;;;50.13;20.13;;;8.30;99.90;;;;;;5034468;28;20461;-61
2022/11/14 02:58:14;;;;;;;52.23;20.27;;;8.30;99.90;;;;;;5034647;28;20445;-56
2022/11/14 03:00:41;;;;;;;46.70;19.37;;;8.30;99.90;;;;;;5030650;28;20476;-64
2022/11/14 03:03:10;;;;;;;45.40;17.87;;;8.40;99.90;;;;;;5027300;28;20453;-57
2022/11/14 03:05:37;;;;;;;45.17;18.97;;;8.40;99.90;;;;;;5034998;28;20957;-61
2022/11/14 03:08:06;;;;;;;37.47;17.60;;;8.40;99.90;;;;;;5034806;28;20476;-50
2022/11/14 03:10:33;;;;;;;44.40;18.67;;;8.30;99.90;;;;;;5037332;28;20417;-59
2022/11/14 03:13:04;;;;;;;49.10;21.80;;;8.30;99.90;;;;;;5037682;28;20444;-60
2022/11/14 03:15:31;;;;;;;42.63;19.07;;;8.30;99.90;;;;;;5037295;28;20476;-59
2022/11/14 03:17:58;;;;;;;49.77;16.90;;;8.30;99.90;;;;;;5037682;28;20445;-60
2022/11/14 03:20:28;;;;;;;45.43;19.20;;;8.30;99.90;;;;;;5037562;28;20488;-53
2022/11/14 03:22:55;;;;;;;42.13;19.87;;;8.30;99.90;;;;;;5038347;28;20425;-59
2022/11/14 03:25:22;;;;;;;47.43;18.27;;;8.30;99.90;;;;;;5036522;28;20436;-58
2022/11/14 03:27:49;;;;;;;44.30;19.70;;;8.30;99.90;;;;;;5037880;28;20463;-57
2022/11/14 03:30:17;;;;;;;44.37;19.43;;;8.30;99.90;;;;;;5026559;28;20518;-59
2022/11/14 03:32:47;;;;;;;42.17;18.37;;;8.30;99.90;;;;;;5037248;28;20457;-60
2022/11/14 03:35:14;;;;;;;39.40;17.47;;;8.20;99.90;;;;;;5037267;28;20429;-57
2022/11/14 03:37:41;;;;;;;46.00;18.73;;;8.20;99.90;;;;;;5037646;28;20449;-60
2022/11/14 03:40:09;;;;;;;38.93;16.40;;;8.20;99.90;;;;;;5036986;28;20477;-61
2022/11/14 03:42:36;;;;;;;44.93;18.67;;;8.10;99.90;;;;;;5025255;28;20606;-62
2022/11/14 03:45:03;;;;;;;41.30;18.00;;;8.10;99.90;;;;;;5036938;28;20472;-57
2022/11/14 03:47:33;;;;;;;55.70;20.93;;;8.10;99.90;;;;;;5036220;28;20449;-56
2022/11/14 03:49:59;;;;;;;41.33;14.33;;;8.10;99.90;;;;;;5037098;28;20480;-49
2022/11/14 03:52:26;;;;;;;41.83;18.57;;;8.10;99.90;;;;;;5037311;28;20978;-53
2022/11/14 03:54:53;;;;;;;52.20;19.20;;;8.20;99.90;;;;;;5036833;28;20440;-55
2022/11/14 03:57:22;;;;;;;46.50;21.30;;;8.20;99.90;;;;;;5036932;28;20460;-58
2022/11/14 03:59:49;;;;;;;41.00;17.73;;;8.10;99.90;;;;;;5036110;28;20480;-54
2022/11/14 04:02:16;;;;;;;54.10;18.83;;;8.10;99.90;;;;;;5037829;28;20432;-56
2022/11/14 04:04:44;;;;;;;47.90;17.87;;;8.10;99.90;;;;;;5036796;28;20456;-60
2022/11/14 04:07:14;;;;;;;39.20;18.03;;;8.20;99.90;;;;;;5036247;28;20438;-59
2022/11/14 04:09:43;;;;;;;49.87;19.10;;;8.20;99.90;;;;;;5038095;28;20457;-55
2022/11/14 04:12:10;;;;;;;39.33;19.47;;;8.10;99.90;;;;;;5037343;28;20540;-59
2022/11/14 04:14:37;;;;;;;47.43;19.83;;;8.10;99.90;;;;;;5036671;28;20452;-61
2022/11/14 04:17:04;;;;;;;46.13;18.70;;;8.10;99.90;;;;;;5036232;28;20445;-58
2022/11/14 04:19:31;;;;;;;40.73;16.97;;;8.00;99.90;;;;;;5036184;28;20452;-56
2022/11/14 04:21:59;;;;;;;39.60;17.63;;;8.10;99.90;;;;;;5036042;28;20499;-59
2022/11/14 04:24:26;;;;;;;44.60;19.20;;;8.00;99.90;;;;;;5036174;28;20457;-52
2022/11/14 04:26:53;;;;;;;49.47;19.97;;;7.90;99.90;;;;;;5036377;28;20452;-58
2022/11/14 04:29:21;;;;;;;56.63;19.60;;;7.90;99.90;;;;;;5036157;28;20460;-52
2022/11/14 04:31:47;;;;;;;47.77;19.80;;;7.80;99.90;;;;;;5035408;28;20456;-53
2022/11/14 04:34:14;;;;;;;42.23;20.10;;;7.90;99.90;;;;;;5034506;28;20465;-55
2022/11/14 04:36:41;;;;;;;45.80;19.90;;;7.90;99.90;;;;;;5035485;28;20449;-60
2022/11/14 04:39:09;;;;;;;48.60;20.27;;;7.90;99.90;;;;;;5035221;28;20460;-52
2022/11/14 04:41:38;;;;;;;46.23;18.20;;;7.80;99.90;;;;;;5036434;28;20500;-58
2022/11/14 04:44:05;;;;;;;49.83;18.53;;;7.80;99.90;;;;;;5037453;28;20437;-58
2022/11/14 04:46:32;;;;;;;41.67;19.50;;;7.80;99.90;;;;;;5036226;28;20499;-61
2022/11/14 04:48:59;;;;;;;42.80;19.37;;;7.80;99.90;;;;;;5036521;28;20441;-55
2022/11/14 04:51:26;;;;;;;44.53;19.57;;;7.80;99.90;;;;;;5037241;28;20437;-55
2022/11/14 04:53:53;;;;;;;50.63;22.50;;;7.80;99.90;;;;;;5036489;28;20438;-59
2022/11/14 04:56:22;;;;;;;47.60;19.20;;;7.80;99.90;;;;;;5031133;28;20465;-58
2022/11/14 04:58:49;;;;;;;38.13;17.50;;;7.80;99.90;;;;;;5030192;28;20480;-56
2022/11/14 05:01:18;;;;;;;51.00;19.70;;;7.70;99.90;;;;;;5036360;28;20535;-59
2022/11/14 05:03:44;;;;;;;54.37;21.80;;;7.80;99.90;;;;;;5026422;28;20453;-63
2022/11/14 05:06:11;;;;;;;42.90;19.43;;;7.80;99.90;;;;;;5033537;28;20437;-55
2022/11/14 05:08:38;;;;;;;44.10;18.60;;;7.80;99.90;;;;;;5036230;28;20453;-54
2022/11/14 05:11:05;;;;;;;48.37;18.70;;;7.80;99.90;;;;;;5035927;28;20814;-59
2022/11/14 05:13:34;;;;;;;49.97;19.60;;;7.80;99.90;;;;;;5036469;28;20441;-59
2022/11/14 05:16:01;;;;;;;51.23;18.77;;;7.80;99.90;;;;;;5035733;28;20443;-55
2022/11/14 05:18:28;;;;;;;52.40;19.23;;;7.80;99.90;;;;;;5036833;28;20445;-56
2022/11/14 05:20:58;;;;;;;55.60;21.83;;;7.80;99.90;;;;;;5036532;28;20473;-56
2022/11/14 05:23:26;;;;;;;47.57;20.10;;;7.70;99.90;;;;;;5036242;28;20504;-59
2022/11/14 05:26:01;;;;;;;48.50;18.00;;;7.80;99.90;;;;;;5036913;28;20425;-58
2022/11/14 05:28:28;;;;;;;48.50;20.20;;;7.70;99.90;;;;;;5036606;28;20440;-58
2022/11/14 05:31:02;;;;;;;48.17;17.97;;;7.70;99.90;;;;;;5035983;28;20433;-58
2022/11/14 05:33:29;;;;;;;39.37;17.60;;;7.70;99.90;;;;;;5036977;28;20448;-61
2022/11/14 05:35:56;;;;;;;47.30;19.43;;;7.70;99.90;;;;;;5036275;28;20468;-55
2022/11/14 05:38:23;;;;;;;45.10;19.17;;;7.70;99.90;;;;;;5036276;28;20441;-57
2022/11/14 05:40:50;;;;;;;52.70;20.37;;;7.80;99.90;;;;;;5036579;28;20472;-55
2022/11/14 05:43:17;;;;;;;51.70;19.97;;;7.80;99.90;;;;;;5036398;28;20467;-60
2022/11/14 05:45:45;;;;;;;52.00;20.80;;;7.80;99.90;;;;;;5036355;28;20441;-54
2022/11/14 05:48:17;;;;;;;52.27;21.30;;;7.80;99.90;;;;;;5036264;28;20449;-57
2022/11/14 05:50:44;;;;;;;48.20;19.37;;;7.80;99.90;;;;;;5036253;28;20441;-56
2022/11/14 05:53:10;;;;;;;50.80;21.77;;;7.80;99.90;;;;;;5025683;28;20456;-59
2022/11/14 05:55:37;;;;;;;38.43;19.57;;;7.80;99.90;;;;;;5035149;28;20480;-47
2022/11/14 05:58:04;;;;;;;47.97;23.10;;;7.80;99.90;;;;;;5022029;28;20475;-45
2022/11/14 06:00:31;;;;;;;49.27;20.10;;;7.80;99.90;;;;;;5034577;28;20465;-45
2022/11/14 06:02:58;;;;;;;48.90;19.23;;;7.90;99.90;;;;;;5034674;28;20452;-58
2022/11/14 06:05:26;;;;;;;46.70;19.23;;;7.90;99.90;;;;;;5034532;28;20452;-45
2022/11/14 06:07:56;;;;;;;41.37;19.67;;;7.90;99.90;;;;;;5034790;28;20429;-44
2022/11/14 06:10:23;;;;;;;50.07;17.50;;;8.00;99.90;;;;;;5025736;28;20434;-49
2022/11/14 06:12:50;;;;;;;42.80;21.33;;;7.90;99.90;;;;;;5034952;28;20476;-50
2022/11/14 06:15:17;;;;;;;43.10;17.87;;;7.90;99.90;;;;;;5035190;28;20456;-41
2022/11/14 06:17:44;;;;;;;44.13;19.77;;;7.90;99.90;;;;;;5035570;28;20445;-45
2022/11/14 06:20:12;;;;;;;40.00;17.77;;;8.00;99.90;;;;;;5035678;28;20421;-51
2022/11/14 06:22:41;;;;;;;44.00;17.70;;;7.90;99.90;;;;;;5034592;28;20481;-52
2022/11/14 06:25:08;;;;;;;53.63;18.97;;;8.00;99.90;;;;;;5029401;28;20461;-46
2022/11/14 06:27:38;;;;;;;46.90;19.00;;;7.90;99.90;;;;;;5029261;28;20460;-44
2022/11/14 06:30:05;;;;;;;50.43;16.80;;;7.90;99.90;;;;;;5035034;28;20464;-52
2022/11/14 06:32:32;;;;;;;40.33;18.97;;;7.90;99.90;;;;;;5034619;28;20456;-45
2022/11/14 06:34:59;;;;;;;46.97;21.63;;;7.80;99.90;;;;;;5035216;28;20445;-45
2022/11/14 06:37:26;;;;;;;47.20;18.77;;;7.80;99.90;;;;;;5035164;28;20465;-48
2022/11/14 06:39:54;;;;;;;49.87;19.97;;;7.80;99.90;;;;;;5034950;28;20519;-51
2022/11/14 06:42:21;;;;;;;38.77;19.43;;;7.80;99.90;;;;;;5022015;28;20517;-44
2022/11/14 06:44:48;;;;;;;52.30;20.93;;;7.70;99.90;;;;;;5030542;28;20473;-44
2022/11/14 06:47:15;;;;;;;45.07;19.93;;;7.70;99.90;;;;;;5033696;28;20429;-46
2022/11/14 06:49:42;;;;;;;41.90;17.83;;;7.70;99.90;;;;;;5038776;28;20500;-57
2022/11/14 06:52:11;;;;;;;46.10;18.70;;;7.70;99.90;;;;;;5039305;28;20448;-49
2022/11/14 06:54:38;;;;;;;55.83;20.13;;;7.70;99.90;;;;;;5038681;28;20455;-53
2022/11/14 06:57:06;;;;;;;48.67;18.37;;;7.70;99.90;;;;;;5039215;28;20445;-53
2022/11/14 06:59:33;;;;;;;44.27;17.47;;;7.70;99.90;;;;;;5038925;28;20444;-56
2022/11/14 07:01:59;;;;;;;44.93;19.47;;;7.70;99.90;;;;;;5038256;28;20512;-50
2022/11/14 07:04:26;;;;;;;42.30;18.77;;;7.70;99.90;;;;;;5038792;28;20456;-50
2022/11/14 07:06:55;;;;;;;39.47;19.47;;;7.70;99.90;;;;;;5038408;28;20456;-50
2022/11/14 07:09:25;;;;;;;38.40;17.80;;;7.70;99.90;;;;;;5038076;28;20440;-50
2022/11/14 07:11:52;;;;;;;47.53;17.97;;;7.80;99.90;;;;;;5038120;28;20473;-51
2022/11/14 07:14:21;;;;;;;42.33;17.70;;;7.80;99.90;;;;;;5025790;28;20495;-50
2022/11/14 07:16:47;;;;;;;54.20;19.70;;;7.80;99.90;;;;;;5038866;28;20452;-49
2022/11/14 07:19:14;;;;;;;41.30;17.10;;;7.80;99.90;;;;;;5038326;28;20437;-50
2022/11/14 07:21:41;;;;;;;42.53;19.90;;;7.80;99.90;;;;;;5038255;28;20417;-45
2022/11/14 07:24:08;;;;;;;40.67;19.23;;;7.80;99.90;;;;;;5037667;28;20441;-47
2022/11/14 07:26:35;;;;;;;43.17;18.10;;;7.80;99.90;;;;;;5037305;28;20464;-50
2022/11/14 07:29:04;;;;;;;44.57;20.27;;;7.90;99.90;;;;;;5038098;28;20440;-45
2022/11/14 07:31:35;;;;;;;54.13;16.90;;;7.90;99.90;;;;;;5038273;28;20488;-46
2022/11/14 07:34:01;;;;;;;40.03;17.23;;;7.90;99.90;;;;;;5037804;28;20437;-48
2022/11/14 07:36:28;;;;;;;52.67;18.03;;;7.90;99.90;;;;;;5037087;28;20452;-46
2022/11/14 07:38:55;;;;;;;46.30;19.63;;;7.90;99.90;;;;;;5036537;28;20473;-46
2022/11/14 07:41:22;;;;;;;46.57;18.77;;;8.00;99.90;;;;;;5037859;28;20953;-43
2022/11/14 07:43:49;;;;;;;44.43;19.40;;;7.90;99.90;;;;;;5037467;28;20445;-48
2022/11/14 07:46:18;;;;;;;49.10;19.40;;;8.00;99.90;;;;;;5037402;28;20453;-50
2022/11/14 07:48:46;;;;;;;41.43;19.57;;;8.00;99.90;;;;;;5037745;28;20460;-47
2022/11/14 07:51:15;;;;;;;43.73;19.37;;;8.00;99.90;;;;;;5036694;28;20481;-54
2022/11/14 07:53:42;;;;;;;43.37;19.17;;;8.10;99.90;;;;;;5037233;28;20441;-55
2022/11/14 07:56:10;;;;;;;49.80;18.97;;;8.10;99.90;;;;;;5031718;28;20460;-53
2022/11/14 07:58:38;;;;;;;37.10;18.27;;;8.20;99.90;;;;;;5037010;28;20491;-49
2022/11/14 08:01:06;;;;;;;36.37;16.10;;;8.20;99.90;;;;;;5036926;28;20425;-48
2022/11/14 08:03:34;;;;;;;38.10;17.30;;;8.20;99.90;;;;;;5037420;28;20452;-50
2022/11/14 08:06:04;;;;;;;45.33;19.10;;;8.20;99.90;;;;;;5037696;28;20448;-42
2022/11/14 08:08:31;;;;;;;41.90;18.20;;;8.20;99.90;;;;;;5037607;28;20441;-43
2022/11/14 08:10:58;;;;;;;43.70;17.60;;;8.20;99.90;;;;;;5036777;28;20436;-45
2022/11/14 08:13:26;;;;;;;44.27;17.07;;;8.20;99.90;;;;;;5024894;28;20497;-41
2022/11/14 08:15:53;;;;;;;42.10;18.43;;;8.30;99.90;;;;;;5037059;28;20464;-46
2022/11/14 08:18:22;;;;;;;38.63;17.23;;;8.40;99.90;;;;;;5037118;28;20441;-47
2022/11/14 08:20:49;;;;;;;42.83;16.83;;;8.40;99.90;;;;;;5037120;28;20445;-42
2022/11/14 08:23:20;;;;;;;42.70;18.30;;;8.40;99.90;;;;;;5036463;28;20437;-50
2022/11/14 08:25:47;;;;;;;47.07;17.23;;;8.50;99.90;;;;;;5036571;28;20426;-47
2022/11/14 08:28:14;;;;;;;39.10;17.70;;;8.50;99.90;;;;;;5035875;28;20496;-42
2022/11/14 08:30:46;;;;;;;54.90;17.77;;;8.60;99.90;;;;;;5036535;28;20441;-49
2022/11/14 08:33:13;;;;;;;56.07;21.00;;;8.60;99.90;;;;;;5031484;28;20491;-44
2022/11/14 08:35:39;;;;;;;53.77;19.37;;;8.70;99.90;;;;;;5029744;28;20430;-50
2022/11/14 08:38:08;;;;;;;52.73;18.23;;;8.70;99.90;;;;;;5036625;28;20445;-41
2022/11/14 08:40:37;;;;;;;52.27;17.57;;;8.70;99.90;;;;;;5036634;28;20477;-48
2022/11/14 08:43:04;;;;;;;39.90;18.33;;;8.80;99.90;;;;;;5031804;28;20453;-44
2022/11/14 08:45:31;;;;;;;37.17;16.97;;;8.80;99.90;;;;;;5036550;28;20429;-49
2022/11/14 08:47:58;;;;;;;61.40;21.20;;;8.80;99.90;;;;;;5036035;28;20456;-52
2022/11/14 08:50:28;;;;;;;45.73;21.00;;;8.90;99.90;;;;;;5035602;28;20421;-48
2022/11/14 08:52:55;;;;;;;45.93;17.30;;;9.00;99.90;;;;;;5035547;28;20489;-43
2022/11/14 08:55:23;;;;;;;45.63;17.87;;;9.10;99.90;;;;;;5036167;28;20433;-46
2022/11/14 08:57:53;;;;;;;35.67;17.80;;;9.10;99.90;;;;;;5035571;28;20444;-50
2022/11/14 09:00:24;;;;;;;45.43;19.23;;;9.20;99.90;;;;;;5035401;28;20429;-50
2022/11/14 09:02:51;;;;;;;35.40;15.53;;;9.20;99.90;;;;;;5035452;28;20442;-50
2022/11/14 09:05:18;;;;;;;42.60;18.90;;;9.30;99.90;;;;;;5035402;28;20523;-47
2022/11/14 09:07:45;;;;;;;33.63;15.00;;;9.30;99.90;;;;;;5035201;28;20480;-48
2022/11/14 09:10:12;;;;;;;38.70;17.40;;;9.30;99.90;;;;;;5035263;28;20460;-51
2022/11/14 09:12:38;;;;;;;39.83;18.37;;;9.40;99.90;;;;;;5036034;28;20525;-52
2022/11/14 09:15:10;;;;;;;61.17;20.97;;;9.50;99.90;;;;;;5035672;28;20445;-51
2022/11/14 09:17:37;;;;;;;40.80;16.47;;;9.50;99.90;;;;;;5036003;28;20537;-46
2022/11/14 09:20:05;;;;;;;46.03;18.83;;;9.60;99.90;;;;;;5035367;28;20449;-46
2022/11/14 09:22:32;;;;;;;43.27;19.47;;;10.00;99.90;;;;;;5034571;28;20461;-47
2022/11/14 09:24:59;;;;;;;34.20;17.10;;;10.70;99.90;;;;;;5034779;28;20417;-49
2022/11/14 09:27:26;;;;;;;44.10;15.93;;;11.50;99.90;;;;;;5034833;28;20476;-47
2022/11/14 09:29:57;;;;;;;40.97;16.27;;;12.30;99.90;;;;;;5034894;28;20449;-49
2022/11/14 09:32:25;;;;;;;39.80;15.63;;;12.90;99.90;;;;;;5034889;28;20497;-46
2022/11/14 09:34:52;;;;;;;33.43;16.17;;;13.30;99.90;;;;;;5034852;28;20434;-46
2022/11/14 09:37:19;;;;;;;37.57;18.40;;;13.80;99.90;;;;;;5035382;28;20430;-51
2022/11/14 09:39:47;;;;;;;39.20;17.93;;;14.20;99.90;;;;;;5034735;28;20437;-46
2022/11/14 09:42:29;;;;;;;31.03;16.07;;;14.50;99.90;;;;;;5034830;28;20492;-45
2022/11/14 09:44:58;;;;;;;33.97;17.20;;;14.90;99.90;;;;;;5034979;28;20449;-47
2022/11/14 09:47:29;;;;;;;35.37;19.93;;;15.00;99.90;;;;;;5035590;28;20469;-49
2022/11/14 09:50:02;;;;;;;34.70;17.97;;;15.10;99.90;;;;;;5035652;28;20421;-45
2022/11/14 09:52:34;;;;;;;31.43;14.00;;;15.20;99.90;;;;;;5035315;28;20516;-53
2022/11/14 09:55:09;;;;;;;36.93;16.37;;;15.50;99.90;;;;;;5035218;28;20417;-50
2022/11/14 09:57:37;;;;;;;23.50;13.73;;;15.80;99.90;;;;;;5034885;28;20452;-56
2022/11/14 10:00:13;;;;;;;30.50;15.87;;;16.20;99.90;;;;;;5035441;28;20467;-51
2022/11/14 10:02:53;;;;;;;32.43;15.70;;;16.50;99.90;;;;;;5035722;28;20464;-51
2022/11/14 10:05:58;;;;;;;98.13;41.63;;;17.10;99.90;;;;;;5035156;28;20909;-50
2022/11/14 10:08:39;;;;;;;32.93;16.30;;;17.50;99.90;;;;;;5020274;28;20527;-51
2022/11/14 10:11:12;;;;;;;33.13;15.93;;;18.00;99.90;;;;;;5034539;28;20461;-50
2022/11/14 10:13:51;;;;;;;31.93;16.97;;;18.10;99.90;;;;;;5035158;28;20468;-48
2022/11/14 10:16:24;;;;;;;25.47;13.27;;;18.00;99.90;;;;;;5034693;28;20453;-51
2022/11/14 10:19:05;;;;;;;28.30;17.60;;;18.00;99.90;;;;;;5034499;28;20480;-47
2022/11/14 10:21:46;;;;;;;39.70;18.33;;;18.00;99.90;;;;;;5035097;28;20449;-48
2022/11/14 10:24:28;;;;;;;43.73;17.07;;;17.90;99.90;;;;;;5034157;28;20417;-56
2022/11/14 10:27:01;;;;;;;27.67;14.67;;;17.80;99.90;;;;;;5034399;28;20445;-46
2022/11/14 10:29:47;;;;;;;31.87;15.90;;;17.60;99.90;;;;;;5035037;28;20429;-50
2022/11/14 10:32:22;;;;;;;33.13;15.73;;;17.10;99.90;;;;;;5034576;28;20548;-48
2022/11/14 10:34:56;;;;;;;33.13;15.77;;;16.80;99.90;;;;;;5034564;28;20449;-45
2022/11/14 10:37:26;;;;;;;31.03;15.60;;;16.70;99.90;;;;;;5035269;28;20473;-41
2022/11/14 10:39:55;;;;;;;29.23;14.33;;;16.40;99.90;;;;;;5023873;28;20437;-50
2022/11/14 10:42:29;;;;;;;36.13;15.20;;;16.20;99.90;;;;;;5031315;28;20468;-48
2022/11/14 10:45:03;;;;;;;22.83;13.90;;;16.00;99.90;;;;;;5029307;28;20462;-46
2022/11/14 10:47:36;;;;;;;46.40;17.57;;;15.70;99.90;;;;;;5025451;28;20469;-44
2022/11/14 10:50:18;;;;;;;29.30;15.47;;;15.20;99.90;;;;;;5034661;28;20469;-50
2022/11/14 10:52:47;;;;;;;33.70;15.13;;;14.70;99.90;;;;;;5029676;28;20507;-48
2022/11/14 10:55:16;;;;;;;33.43;15.77;;;14.30;99.90;;;;;;5025742;28;20524;-44
2022/11/14 10:57:45;;;;;;;32.23;15.50;;;13.90;99.90;;;;;;5034663;28;20421;-52
2022/11/14 11:00:15;;;;;;;29.20;13.93;;;13.60;99.90;;;;;;5025418;28;20468;-45
2022/11/14 11:02:50;;;;;;;34.37;15.30;;;13.40;99.90;;;;;;5034078;28;20527;-51
2022/11/14 11:05:22;;;;;;;27.60;15.07;;;13.10;99.90;;;;;;5034878;28;20436;-52
2022/11/14 11:13:32;;;;;;;28.03;13.93;;;12.60;99.90;;;;;;5034289;28;20511;-48
2022/11/14 11:16:00;;;;;;;32.93;13.90;;;12.30;99.90;;;;;;5034310;28;20440;-47
2022/11/14 11:18:29;;;;;;;26.87;13.40;;;12.20;99.90;;;;;;5034666;28;20447;-47
2022/11/14 11:21:10;;;;;;;32.43;15.30;;;12.20;99.90;;;;;;5034265;28;20477;-44
2022/11/14 11:23:47;;;;;;;31.43;15.20;;;12.20;99.90;;;;;;5035130;28;20444;-46
2022/11/14 11:26:21;;;;;;;34.60;14.27;;;12.20;99.90;;;;;;5034558;28;20448;-46
2022/11/14 11:29:04;;;;;;;30.13;14.97;;;12.20;99.90;;;;;;5034794;28;20456;-46
2022/11/14 11:31:50;;;;;;;30.13;13.40;;;12.20;99.90;;;;;;5037817;28;20435;-42
2022/11/14 11:34:26;;;;;;;31.40;13.83;;;12.20;99.90;;;;;;5037731;28;20421;-47
2022/11/14 11:37:02;;;;;;;38.57;16.20;;;12.10;99.90;;;;;;5037327;28;20433;-45
2022/11/14 11:39:32;;;;;;;32.67;14.97;;;12.10;99.90;;;;;;5036489;28;20471;-47
2022/11/14 11:42:04;;;;;;;31.40;14.03;;;12.10;99.90;;;;;;5036772;28;20748;-48
2022/11/14 11:44:38;;;;;;;26.80;13.00;;;12.10;99.90;;;;;;5036941;28;20467;-44
2022/11/14 11:47:11;;;;;;;29.50;14.43;;;12.20;99.90;;;;;;5037409;28;20445;-48
2022/11/14 11:49:43;;;;;;;31.47;14.80;;;12.20;99.90;;;;;;5036755;28;20457;-48
2022/11/14 11:52:17;;;;;;;32.47;14.53;;;12.20;99.90;;;;;;5036597;28;20487;-44
2022/11/14 11:54:56;;;;;;;29.63;14.47;;;12.20;99.90;;;;;;5036393;28;20464;-48
2022/11/14 11:57:31;;;;;;;27.13;14.47;;;12.20;99.90;;;;;;5036878;28;20496;-47
2022/11/14 12:00:05;;;;;;;45.30;22.87;;;12.10;99.90;;;;;;5036924;28;20429;-48
2022/11/14 12:02:32;;;;;;;28.30;12.83;;;12.10;99.90;;;;;;5036893;28;20448;-47
2022/11/14 12:05:02;;;;;;;28.93;14.73;;;12.10;99.90;;;;;;5036892;28;20452;-50
2022/11/14 12:07:38;;;;;;;24.50;13.83;;;12.10;99.90;;;;;;5036913;28;20460;-46
2022/11/14 12:10:14;;;;;;;27.93;12.90;;;12.10;99.90;;;;;;5036614;28;20461;-54
2022/11/14 12:13:07;;;;;;;27.90;12.83;;;12.20;99.90;;;;;;5036841;28;20457;-50
2022/11/14 12:15:44;;;;;;;25.90;13.40;;;12.20;99.90;;;;;;5036438;28;20457;-48
2022/11/14 12:18:26;;;;;;;21.77;12.10;;;12.20;99.90;;;;;;5035922;28;20457;-51
2022/11/14 12:21:12;;;;;;;23.17;12.90;;;12.20;99.90;;;;;;5029016;28;20437;-53
2022/11/14 12:24:19;;;;;;;23.37;12.30;;;12.20;99.90;;;;;;5028879;28;20459;-53
2022/11/14 12:27:06;;;;;;;21.97;13.07;;;12.20;99.90;;;;;;5026291;28;20477;-52
2022/11/14 12:29:47;;;;;;;22.27;10.83;;;12.20;99.90;;;;;;5036134;28;20489;-55
2022/11/14 12:32:18;;;;;;;21.60;11.83;;;12.20;99.90;;;;;;5035994;28;20429;-52
2022/11/14 12:34:47;;;;;;;27.00;13.30;;;12.30;99.90;;;;;;5036536;28;20480;-48
2022/11/14 12:37:23;;;;;;;20.50;12.57;;;12.30;99.90;;;;;;5036308;28;20441;-51
2022/11/14 12:39:58;;;;;;;23.00;13.13;;;12.40;99.90;;;;;;5036578;28;20477;-46
2022/11/14 12:42:27;;;;;;;24.27;12.53;;;12.30;99.90;;;;;;5036103;28;20432;-48
2022/11/14 12:44:54;;;;;;;27.43;14.20;;;12.30;99.90;;;;;;5035313;28;20430;-45
2022/11/14 12:47:23;;;;;;;27.10;12.13;;;12.40;99.90;;;;;;5036350;28;20493;-48
2022/11/14 12:50:26;;;;;;;23.10;13.00;;;12.40;99.90;;;;;;5035325;28;20966;-52